Time;durP1;ratioP1;P1;durP2;ratioP2;P2;SDS_P1;SDS_P2;PMS_P1;PMS_P2;Temp;Humidity;BMP_temperature;BMP_pressure;BME280_temperature;BME280_humidity;BME280_pressure;Samples;Min_cycle;Max_cycle;Signal;HPM_P1;HPM_P2
2023/12/25 00:03:54;;;;;;;3.35;2.17;;;;;;;-1.70;100.00;97922.91;10440376;28;20424;-67
2023/12/25 00:08:57;;;;;;;2.38;1.83;;;;;;;-1.69;100.00;97921.03;10424880;28;20656;-67
2023/12/25 00:13:59;;;;;;;2.90;2.08;;;;;;;-1.64;100.00;97905.69;10440184;28;20044;-67
2023/12/25 00:19:02;;;;;;;3.00;2.20;;;;;;;-1.64;100.00;97915.66;10472119;28;20069;-67
2023/12/25 00:24:05;;;;;;;3.17;2.30;;;;;;;-1.62;100.00;97914.28;10433627;28;20048;-67
2023/12/25 00:29:09;;;;;;;2.42;2.20;;;;;;;-1.70;100.00;97925.59;10430086;28;20056;-68
2023/12/25 00:34:11;;;;;;;2.75;1.98;;;;;;;-1.61;100.00;97920.47;10435910;28;20064;-68
2023/12/25 00:39:13;;;;;;;2.33;1.95;;;;;;;-1.71;100.00;97925.88;10441106;28;20044;-68
2023/12/25 00:44:16;;;;;;;2.08;1.85;;;;;;;-1.74;100.00;97919.13;10439731;28;20033;-68
2023/12/25 00:49:19;;;;;;;2.05;1.80;;;;;;;-1.68;100.00;97928.81;10433669;28;20053;-68
2023/12/25 00:54:21;;;;;;;2.25;2.05;;;;;;;-1.72;100.00;97925.06;10442859;28;20037;-68
2023/12/25 00:59:24;;;;;;;2.60;2.22;;;;;;;-1.80;100.00;97914.03;10439226;28;20048;-68
2023/12/25 01:04:26;;;;;;;2.28;1.85;;;;;;;-1.87;100.00;97917.78;10440029;28;20497;-67
2023/12/25 01:09:29;;;;;;;2.75;2.00;;;;;;;-1.93;100.00;97909.97;10439986;28;20417;-67
2023/12/25 01:14:31;;;;;;;2.33;2.05;;;;;;;-1.90;100.00;97910.28;10437992;28;21387;-68
2023/12/25 01:19:33;;;;;;;2.70;2.15;;;;;;;-1.85;99.88;97906.78;10439422;28;20037;-67
2023/12/25 01:24:36;;;;;;;2.63;2.28;;;;;;;-1.86;99.33;97907.84;10450085;28;20044;-67
2023/12/25 01:29:38;;;;;;;2.60;2.20;;;;;;;-1.79;99.03;97905.69;10451617;28;20037;-68
2023/12/25 01:34:41;;;;;;;2.38;2.17;;;;;;;-1.78;99.29;97907.31;10438768;28;20038;-68
2023/12/25 01:39:43;;;;;;;2.45;2.10;;;;;;;-1.79;99.34;97903.00;10439867;28;20040;-67
2023/12/25 01:44:47;;;;;;;2.92;2.20;;;;;;;-1.68;99.15;97898.44;10441994;28;20542;-68
2023/12/25 01:49:50;;;;;;;2.78;2.30;;;;;;;-1.76;98.35;97907.03;10439515;28;20045;-67
2023/12/25 01:54:52;;;;;;;3.97;2.63;;;;;;;-1.69;98.39;97897.66;10445904;28;20046;-68
2023/12/25 01:59:54;;;;;;;2.85;2.22;;;;;;;-1.64;98.22;97886.06;10449079;28;20039;-67
2023/12/25 02:04:57;;;;;;;2.22;1.88;;;;;;;-1.71;97.83;97899.78;10446136;28;20053;-68
2023/12/25 02:10:00;;;;;;;3.95;2.13;;;;;;;-1.72;97.25;97887.44;10446437;28;20037;-67
2023/12/25 02:15:03;;;;;;;2.85;1.77;;;;;;;-1.82;97.21;97887.41;10445093;28;20073;-67
2023/12/25 02:20:06;;;;;;;1.60;1.50;;;;;;;-1.87;97.31;97887.44;10445650;28;20041;-68
2023/12/25 02:25:32;;;;;;;1.52;1.42;;;;;;;-1.94;97.79;97890.34;10444137;28;20037;-68
2023/12/25 02:30:35;;;;;;;1.75;1.50;;;;;;;-1.97;98.06;97890.91;10431989;28;20401;-67
2023/12/25 02:35:38;;;;;;;1.80;1.70;;;;;;;-1.95;97.59;97882.56;10446448;28;20048;-67
2023/12/25 02:40:41;;;;;;;1.33;1.20;;;;;;;-2.03;97.22;97881.22;10445159;28;20457;-66
2023/12/25 02:45:44;;;;;;;2.78;1.77;;;;;;;-2.05;96.46;97885.25;10443637;28;20049;-68
2023/12/25 02:50:46;;;;;;;1.40;1.20;;;;;;;-2.12;95.67;97880.13;10444673;28;20045;-67
2023/12/25 02:55:49;;;;;;;1.30;1.20;;;;;;;-2.15;94.49;97888.72;10444828;28;20056;-68
2023/12/25 03:00:51;;;;;;;2.08;1.10;;;;;;;-2.16;92.82;97882.53;10441041;28;20048;-68
2023/12/25 03:05:53;;;;;;;1.08;0.95;;;;;;;-2.20;91.77;97891.41;10448088;28;20040;-68
2023/12/25 03:10:56;;;;;;;1.10;1.00;;;;;;;-2.27;92.36;97890.84;10453708;28;20045;-68
2023/12/25 03:15:58;;;;;;;0.98;0.90;;;;;;;-2.24;92.43;97884.97;10441114;28;20732;-68
2023/12/25 03:21:02;;;;;;;1.13;1.00;;;;;;;-2.27;91.91;97880.91;10443040;28;20044;-68
2023/12/25 03:26:04;;;;;;;1.25;1.13;;;;;;;-2.30;92.19;97894.88;10448138;28;20049;-66
2023/12/25 03:31:08;;;;;;;2.47;1.90;;;;;;;-2.30;91.71;97886.00;10443597;28;20433;-67
2023/12/25 03:36:11;;;;;;;3.47;2.35;;;;;;;-2.42;92.10;97894.31;10443082;28;20585;-67
2023/12/25 03:41:13;;;;;;;5.40;2.80;;;;;;;-2.30;92.28;97899.44;10438965;28;20500;-68
2023/12/25 03:46:16;;;;;;;5.88;2.70;;;;;;;-2.35;92.00;97892.19;10439149;28;20053;-67
2023/12/25 03:51:19;;;;;;;3.70;2.33;;;;;;;-2.33;92.24;97892.72;10434529;28;20425;-69
2023/12/25 03:56:24;;;;;;;3.47;2.00;;;;;;;-2.44;92.01;97896.44;10429231;28;20046;-68
2023/12/25 04:01:28;;;;;;;2.95;2.20;;;;;;;-2.41;91.88;97895.13;10424755;28;20045;-68
2023/12/25 04:06:30;;;;;;;2.30;2.00;;;;;;;-2.52;92.02;97889.72;10441367;28;20037;-68
2023/12/25 04:11:33;;;;;;;3.05;1.98;;;;;;;-2.52;92.10;97892.41;10436867;28;20512;-69
2023/12/25 04:16:35;;;;;;;2.35;1.48;;;;;;;-2.57;91.84;97894.28;10455667;28;20045;-69
2023/12/25 04:21:38;;;;;;;3.17;1.58;;;;;;;-2.57;91.91;97892.38;10439938;28;20038;-68
2023/12/25 04:26:41;;;;;;;2.78;1.75;;;;;;;-2.48;91.92;97890.00;10430852;28;20038;-68
2023/12/25 04:31:44;;;;;;;2.13;1.08;;;;;;;-2.50;91.54;97897.50;10421804;28;20052;-68
2023/12/25 04:36:46;;;;;;;2.50;1.70;;;;;;;-2.55;91.64;97897.50;10440325;28;20048;-68
2023/12/25 04:41:50;;;;;;;1.95;1.52;;;;;;;-2.53;91.75;97898.84;10439539;28;20068;-68
2023/12/25 04:46:53;;;;;;;2.25;1.50;;;;;;;-2.53;91.01;97893.47;10441734;28;20053;-68
2023/12/25 04:51:56;;;;;;;2.78;1.55;;;;;;;-2.40;91.27;97894.84;10426566;28;20045;-68
2023/12/25 04:56:59;;;;;;;1.70;1.10;;;;;;;-2.49;90.62;97888.38;10439202;28;20053;-68
2023/12/25 05:02:03;;;;;;;1.40;1.13;;;;;;;-2.49;90.65;97891.06;10437047;28;20072;-68
2023/12/25 05:07:06;;;;;;;2.28;1.52;;;;;;;-2.45;90.08;97892.13;10439100;28;20421;-68
2023/12/25 05:12:09;;;;;;;1.77;1.10;;;;;;;-2.27;89.89;97894.34;10435184;28;20418;-68
2023/12/25 05:17:12;;;;;;;2.53;1.17;;;;;;;-2.32;89.30;97890.84;10437087;28;20041;-70
2023/12/25 05:22:15;;;;;;;2.08;1.27;;;;;;;-2.31;89.50;97890.56;10431243;28;20041;-69
2023/12/25 05:27:17;;;;;;;1.38;1.10;;;;;;;-2.28;89.58;97881.97;10443062;28;20037;-70
2023/12/25 05:32:21;;;;;;;3.40;1.60;;;;;;;-2.20;89.57;97876.09;10447847;28;20038;-70
2023/12/25 05:37:23;;;;;;;1.88;1.20;;;;;;;-2.17;88.77;97880.13;10448729;28;20433;-68
2023/12/25 05:42:26;;;;;;;1.50;1.25;;;;;;;-2.16;88.49;97873.69;10450069;28;20062;-69
2023/12/25 05:47:29;;;;;;;2.10;1.33;;;;;;;-2.17;88.11;97874.75;10449882;28;20057;-68
2023/12/25 05:52:31;;;;;;;1.90;1.40;;;;;;;-2.22;87.12;97872.06;10448389;28;20536;-69
2023/12/25 05:57:33;;;;;;;3.85;1.50;;;;;;;-2.17;87.10;97872.88;10447194;28;20041;-68
2023/12/25 06:02:36;;;;;;;1.70;1.60;;;;;;;-2.19;86.63;97866.97;10448280;28;20037;-69
2023/12/25 06:07:38;;;;;;;1.02;0.80;;;;;;;-2.20;85.48;97872.59;10448397;28;20049;-69
2023/12/25 06:12:41;;;;;;;3.17;1.08;;;;;;;-2.20;86.00;97875.28;10447912;28;20029;-69
2023/12/25 06:17:44;;;;;;;2.80;1.42;;;;;;;-2.24;85.70;97874.22;10454718;28;20045;-68
2023/12/25 06:22:46;;;;;;;1.10;1.00;;;;;;;-2.17;85.64;97872.06;10448661;28;20049;-69
2023/12/25 06:27:48;;;;;;;1.88;1.23;;;;;;;-2.19;84.87;97877.72;10447068;28;20457;-69
2023/12/25 06:32:51;;;;;;;1.45;1.35;;;;;;;-2.22;85.44;97880.94;10445327;28;20030;-69
2023/12/25 06:37:53;;;;;;;2.72;1.88;;;;;;;-2.24;84.02;97885.78;10447353;28;20052;-70
2023/12/25 06:42:55;;;;;;;1.98;1.48;;;;;;;-2.23;84.33;97881.19;10447152;28;20072;-69
2023/12/25 06:47:58;;;;;;;2.85;1.75;;;;;;;-2.20;84.05;97883.34;10446026;28;20049;-70
2023/12/25 06:53:01;;;;;;;1.77;0.90;;;;;;;-2.28;84.37;97883.84;10450716;28;20052;-69
2023/12/25 06:58:03;;;;;;;2.42;1.20;;;;;;;-2.39;85.25;97883.03;10448403;28;20045;-69
2023/12/25 07:03:06;;;;;;;4.45;1.98;;;;;;;-2.44;86.21;97874.94;10449685;28;20049;-68
2023/12/25 07:08:09;;;;;;;1.50;1.20;;;;;;;-2.40;87.01;97869.88;10446696;28;20041;-69
2023/12/25 07:13:11;;;;;;;2.95;1.52;;;;;;;-2.27;87.56;97864.78;10435634;28;20044;-69
2023/12/25 07:18:13;;;;;;;1.48;1.38;;;;;;;-2.28;87.57;97873.13;10445505;28;20048;-70
2023/12/25 07:23:18;;;;;;;1.38;1.25;;;;;;;-2.36;86.93;97868.28;10445462;28;20417;-70
2023/12/25 07:28:21;;;;;;;2.22;1.30;;;;;;;-2.33;88.08;97867.75;10445162;28;20041;-70
2023/12/25 07:33:23;;;;;;;1.70;1.30;;;;;;;-2.30;87.76;97865.31;10444951;28;20052;-70
2023/12/25 07:38:25;;;;;;;2.50;1.70;;;;;;;-2.38;88.10;97868.53;10445139;28;20041;-68
2023/12/25 07:43:28;;;;;;;1.17;1.08;;;;;;;-2.37;89.19;97872.03;10444586;28;20041;-73
2023/12/25 07:48:30;;;;;;;1.38;1.17;;;;;;;-2.43;89.38;97871.19;10442299;28;20072;-71
2023/12/25 07:53:33;;;;;;;1.80;1.55;;;;;;;-2.44;90.26;97873.06;10443950;28;20501;-70
2023/12/25 07:58:35;;;;;;;2.17;1.60;;;;;;;-2.40;90.40;97870.69;10435924;28;20037;-69
2023/12/25 08:03:39;;;;;;;1.80;1.52;;;;;;;-2.51;90.08;97877.91;10437590;28;20060;-69
2023/12/25 08:08:41;;;;;;;2.67;1.60;;;;;;;-2.48;90.62;97866.63;10443889;28;20049;-70
2023/12/25 08:13:43;;;;;;;1.50;1.30;;;;;;;-2.61;90.21;97860.94;10443673;28;20132;-68
2023/12/25 08:18:45;;;;;;;3.10;1.98;;;;;;;-2.57;91.15;97868.22;10448052;28;20543;-68
2023/12/25 08:23:48;;;;;;;2.03;1.63;;;;;;;-2.50;91.19;97876.03;10443167;28;20037;-71
2023/12/25 08:28:52;;;;;;;3.45;1.90;;;;;;;-2.60;90.95;97865.28;10443217;28;20531;-71
2023/12/25 08:33:55;;;;;;;1.92;1.67;;;;;;;-2.58;91.32;97872.00;10442495;28;20543;-70
2023/12/25 08:38:57;;;;;;;2.28;1.65;;;;;;;-2.55;91.21;97862.59;10438594;28;20448;-69
2023/12/25 08:44:00;;;;;;;4.32;2.38;;;;;;;-2.48;91.27;97857.78;10441830;28;20048;-70
2023/12/25 08:49:02;;;;;;;2.15;1.20;;;;;;;-2.54;90.89;97851.59;10440903;28;20073;-70
2023/12/25 08:54:05;;;;;;;3.55;1.58;;;;;;;-2.59;91.35;97842.72;10441375;28;20041;-70
2023/12/25 08:59:07;;;;;;;2.70;1.60;;;;;;;-2.63;91.09;97836.25;10442937;28;20052;-70
2023/12/25 09:04:10;;;;;;;2.72;1.60;;;;;;;-2.67;90.99;97829.81;10448829;28;20045;-68
2023/12/25 09:09:13;;;;;;;5.30;1.77;;;;;;;-2.57;91.11;97821.78;10448429;28;20033;-69
2023/12/25 09:14:15;;;;;;;4.00;2.35;;;;;;;-2.57;90.91;97821.78;10445443;28;20420;-69
2023/12/25 09:19:18;;;;;;;3.63;2.08;;;;;;;-2.58;90.76;97820.19;10447265;28;20044;-70
2023/12/25 09:24:22;;;;;;;4.43;2.45;;;;;;;-2.54;90.46;97814.00;10447741;28;20393;-70
2023/12/25 09:29:24;;;;;;;3.10;1.85;;;;;;;-2.56;90.80;97818.84;10448455;28;20033;-70
2023/12/25 09:34:27;;;;;;;4.60;2.35;;;;;;;-2.60;90.54;97807.03;10446996;28;20048;-69
2023/12/25 09:39:31;;;;;;;3.75;2.45;;;;;;;-2.54;91.50;97805.16;10444626;28;20046;-69
2023/12/25 09:44:36;;;;;;;4.03;2.30;;;;;;;-2.58;91.26;97804.88;10449205;28;20468;-69
2023/12/25 09:49:39;;;;;;;2.08;1.83;;;;;;;-2.65;90.84;97787.41;10441301;28;20050;-68
2023/12/25 09:54:42;;;;;;;4.03;2.30;;;;;;;-2.71;91.47;97793.84;10429498;28;20037;-69
2023/12/25 09:59:46;;;;;;;2.80;1.55;;;;;;;-2.69;91.09;97778.28;10446473;28;20068;-69
2023/12/25 10:04:50;;;;;;;5.57;2.35;;;;;;;-2.71;91.66;97778.53;10447529;28;20041;-71
2023/12/25 10:09:55;;;;;;;3.58;2.15;;;;;;;-2.77;92.09;97769.69;10442690;28;20048;-69
2023/12/25 10:14:57;;;;;;;3.00;2.10;;;;;;;-2.70;92.06;97766.72;10445714;28;20052;-70
2023/12/25 10:20:01;;;;;;;2.58;2.22;;;;;;;-2.87;92.70;97756.22;10444547;28;20048;-72
2023/12/25 10:25:06;;;;;;;4.85;2.67;;;;;;;-2.90;93.10;97759.44;10446266;28;20041;-70
2023/12/25 10:30:15;;;;;;;3.95;2.20;;;;;;;-2.93;93.77;97765.34;10447908;28;20041;-71
2023/12/25 10:35:18;;;;;;;4.22;2.92;;;;;;;-2.94;94.10;97760.25;10447288;28;20037;-71
2023/12/25 10:40:27;;;;;;;3.60;2.42;;;;;;;-2.96;94.49;97749.75;10442288;28;20053;-70
2023/12/25 10:45:30;;;;;;;4.72;2.63;;;;;;;-2.93;94.45;97745.75;10445999;28;20037;-70
2023/12/25 10:50:36;;;;;;;4.18;2.65;;;;;;;-2.92;94.12;97740.13;10443904;28;20045;-71
2023/12/25 10:55:43;;;;;;;4.13;2.00;;;;;;;-3.01;94.46;97735.53;10438608;28;20046;-70
2023/12/25 11:00:56;;;;;;;4.78;2.20;;;;;;;-3.03;94.45;97741.16;10444751;28;20037;-69
2023/12/25 11:05:59;;;;;;;3.20;2.13;;;;;;;-2.96;94.97;97732.84;10477206;28;20091;-70
2023/12/25 11:11:02;;;;;;;4.05;2.22;;;;;;;-2.97;94.85;97728.56;10443142;28;20048;-71
2023/12/25 11:16:05;;;;;;;4.18;2.60;;;;;;;-2.98;94.76;97729.63;10441020;28;20041;-72
2023/12/25 11:21:09;;;;;;;6.18;2.78;;;;;;;-2.97;94.81;97725.88;10433972;28;20044;-69
2023/12/25 11:26:17;;;;;;;3.28;2.42;;;;;;;-3.00;95.41;97721.06;10441374;28;20437;-69
2023/12/25 11:31:21;;;;;;;3.60;2.10;;;;;;;-2.97;95.51;97720.50;10437124;28;20037;-69
2023/12/25 11:36:28;;;;;;;3.53;2.33;;;;;;;-3.03;95.75;97719.72;10440403;28;20038;-70
2023/12/25 11:41:37;;;;;;;2.65;1.90;;;;;;;-3.03;95.51;97733.94;10440527;28;20025;-71
2023/12/25 11:46:47;;;;;;;4.10;2.22;;;;;;;-3.02;95.32;97729.38;10497378;28;20614;-69
2023/12/25 11:51:51;;;;;;;3.03;2.33;;;;;;;-2.97;96.20;97720.50;10470490;28;20056;-70
2023/12/25 11:56:54;;;;;;;4.90;2.47;;;;;;;-2.95;96.35;97721.88;10475027;28;20037;-70
2023/12/25 12:01:56;;;;;;;3.50;2.22;;;;;;;-2.90;95.91;97715.72;10460488;28;20059;-70
2023/12/25 12:06:58;;;;;;;3.03;2.35;;;;;;;-2.86;95.77;97722.97;10468222;28;20060;-71
2023/12/25 12:12:01;;;;;;;3.03;1.88;;;;;;;-2.92;96.04;97702.56;10444823;28;20037;-71
2023/12/25 12:17:04;;;;;;;3.28;2.15;;;;;;;-2.87;95.76;97715.97;10469830;28;20041;-71
2023/12/25 12:22:06;;;;;;;3.17;2.45;;;;;;;-2.85;95.90;97708.47;10475862;28;20064;-71
2023/12/25 12:27:11;;;;;;;2.90;1.58;;;;;;;-2.84;95.91;97712.75;10501345;28;20048;-71
2023/12/25 12:32:13;;;;;;;2.95;1.02;;;;;;;-2.91;95.66;97703.38;10488742;28;20417;-71
2023/12/25 12:37:16;;;;;;;1.75;1.63;;;;;;;-2.95;96.08;97700.44;10469893;28;20041;-70
2023/12/25 12:42:21;;;;;;;5.60;2.40;;;;;;;-2.83;96.46;97700.16;10472595;28;20049;-69
2023/12/25 12:47:23;;;;;;;2.28;1.17;;;;;;;-2.88;96.24;97702.84;10468797;28;20041;-69
2023/12/25 12:52:26;;;;;;;1.45;1.35;;;;;;;-2.92;96.34;97702.56;10467493;28;20037;-70
2023/12/25 12:57:28;;;;;;;4.78;2.08;;;;;;;-2.95;96.50;97704.97;10428882;28;20052;-71
2023/12/25 13:02:31;;;;;;;1.77;1.52;;;;;;;-2.99;96.69;97696.63;10437710;28;20060;-72
2023/12/25 13:07:34;;;;;;;3.70;1.60;;;;;;;-3.06;96.92;97701.47;10442865;28;20033;-71
2023/12/25 13:12:36;;;;;;;2.65;1.98;;;;;;;-2.98;97.20;97700.13;10436689;28;20041;-70
2023/12/25 13:17:38;;;;;;;1.90;1.10;;;;;;;-3.06;97.07;97698.78;10439771;28;20417;-69
2023/12/25 13:22:40;;;;;;;2.97;1.77;;;;;;;-3.06;97.31;97696.09;10433999;28;20049;-70
2023/12/25 13:27:43;;;;;;;1.25;1.15;;;;;;;-2.99;97.68;97693.16;10426444;28;20046;-69
2023/12/25 13:32:46;;;;;;;3.15;1.00;;;;;;;-3.00;97.27;97691.53;10428094;28;20034;-69
2023/12/25 13:37:49;;;;;;;2.35;1.70;;;;;;;-2.97;97.07;97683.75;10446572;28;20527;-68
2023/12/25 13:42:52;;;;;;;1.80;1.30;;;;;;;-3.00;96.57;97694.22;10472341;28;20044;-69
2023/12/25 13:47:54;;;;;;;1.70;1.17;;;;;;;-3.04;96.52;97683.22;10457796;28;20066;-69
2023/12/25 13:52:56;;;;;;;1.48;1.23;;;;;;;-3.03;97.09;97671.44;10446517;28;20038;-69
2023/12/25 13:57:59;;;;;;;2.22;1.50;;;;;;;-2.99;97.12;97675.19;10464572;28;20038;-69
2023/12/25 14:03:01;;;;;;;2.78;1.67;;;;;;;-2.97;96.83;97673.03;10430999;28;20044;-69
2023/12/25 14:08:04;;;;;;;2.78;2.00;;;;;;;-2.97;96.74;97666.88;10440910;28;20423;-69
2023/12/25 14:13:07;;;;;;;1.33;1.10;;;;;;;-3.07;96.63;97657.75;10432965;28;20052;-69
2023/12/25 14:18:09;;;;;;;1.00;0.93;;;;;;;-3.10;97.09;97658.28;10426410;28;20045;-70
2023/12/25 14:23:12;;;;;;;5.43;2.15;;;;;;;-3.14;96.83;97659.06;10416043;28;20037;-69
2023/12/25 14:28:15;;;;;;;3.08;1.83;;;;;;;-3.16;97.38;97659.31;10426683;28;20065;-68
2023/12/25 14:33:17;;;;;;;2.65;1.65;;;;;;;-3.18;97.30;97672.19;10421282;28;20036;-69
2023/12/25 14:38:20;;;;;;;2.17;1.63;;;;;;;-3.20;97.04;97660.94;10440215;28;20041;-71
2023/12/25 14:43:23;;;;;;;1.20;0.77;;;;;;;-3.21;97.23;97664.69;10412426;28;20057;-69
2023/12/25 14:48:26;;;;;;;1.50;1.05;;;;;;;-3.24;97.36;97657.19;10426001;28;20056;-71
2023/12/25 14:53:28;;;;;;;2.90;2.55;;;;;;;-3.24;97.40;97651.81;10441865;28;20044;-68
2023/12/25 14:58:31;;;;;;;2.80;2.30;;;;;;;-3.27;97.57;97643.50;10441642;28;20037;-68
2023/12/25 15:03:33;;;;;;;3.47;2.75;;;;;;;-3.30;97.50;97633.28;10442105;28;20045;-69
2023/12/25 15:08:39;;;;;;;4.22;3.20;;;;;;;-3.24;97.65;97637.59;10442553;28;20428;-69
2023/12/25 15:13:42;;;;;;;4.65;3.63;;;;;;;-3.30;97.77;97649.38;10419665;28;20037;-69
2023/12/25 15:18:44;;;;;;;0.60;0.60;;;;;;;-3.28;97.72;97633.84;10432100;28;20033;-68
2023/12/25 15:23:46;;;;;;;2.80;1.90;;;;;;;-3.30;97.84;97636.78;10429979;28;20528;-68
2023/12/25 15:28:49;;;;;;;3.92;2.35;;;;;;;-3.34;97.90;97624.97;10422626;28;20048;-68
2023/12/25 15:33:51;;;;;;;1.17;0.80;;;;;;;-3.28;97.42;97633.84;10437050;28;20029;-69
2023/12/25 15:38:55;;;;;;;3.33;2.50;;;;;;;-3.35;96.79;97615.31;10435059;28;20045;-69
2023/12/25 15:43:58;;;;;;;2.75;1.92;;;;;;;-3.34;96.90;97604.31;10427309;28;20149;-67
2023/12/25 15:49:01;;;;;;;4.60;2.90;;;;;;;-3.35;97.01;97616.13;10432651;28;20042;-68
2023/12/25 15:54:05;;;;;;;5.07;2.42;;;;;;;-3.33;96.77;97626.59;10428198;28;20041;-67
2023/12/25 15:59:08;;;;;;;5.13;3.00;;;;;;;-3.30;96.62;97622.56;10437622;28;20616;-68
2023/12/25 16:04:10;;;;;;;3.92;2.70;;;;;;;-3.35;96.21;97616.13;10435287;28;20044;-65
2023/12/25 16:09:13;;;;;;;3.78;2.78;;;;;;;-3.33;96.50;97622.03;10436280;28;20045;-67
2023/12/25 16:14:15;;;;;;;3.08;2.22;;;;;;;-3.42;96.77;97629.00;10439701;28;20034;-68
2023/12/25 16:19:18;;;;;;;4.32;2.80;;;;;;;-3.46;96.51;97619.88;10439576;28;20044;-68
2023/12/25 16:24:21;;;;;;;3.53;2.40;;;;;;;-3.42;96.37;97618.28;10410705;28;20053;-67
2023/12/25 16:29:24;;;;;;;3.60;2.70;;;;;;;-3.47;96.51;97615.59;10438845;28;20465;-69
2023/12/25 16:34:27;;;;;;;4.25;2.72;;;;;;;-3.37;96.74;97612.91;10446313;28;20037;-66
2023/12/25 16:39:31;;;;;;;3.58;2.58;;;;;;;-3.44;96.20;97611.56;10441392;28;20457;-66
2023/12/25 16:44:34;;;;;;;4.53;2.40;;;;;;;-3.44;96.44;97608.88;10443676;28;20056;-64
2023/12/25 16:49:36;;;;;;;2.95;2.03;;;;;;;-3.42;96.93;97614.78;10440719;28;20037;-65
2023/12/25 16:54:41;;;;;;;3.30;1.75;;;;;;;-3.47;96.84;97612.91;10436095;28;20053;-65
2023/12/25 16:59:43;;;;;;;3.47;2.15;;;;;;;-3.49;97.14;97614.22;10434665;28;20539;-67
2023/12/25 17:04:46;;;;;;;3.20;2.25;;;;;;;-3.55;97.02;97620.63;10436547;28;20037;-65
2023/12/25 17:09:48;;;;;;;3.03;2.25;;;;;;;-3.61;97.45;97611.00;10443497;28;20461;-66
2023/12/25 17:14:52;;;;;;;3.13;2.22;;;;;;;-3.61;97.63;97619.03;10434156;28;20033;-66
2023/12/25 17:19:54;;;;;;;4.07;2.20;;;;;;;-3.63;97.74;97619.28;10428608;28;20087;-66
2023/12/25 17:24:57;;;;;;;2.80;1.77;;;;;;;-3.61;97.95;97617.16;10446109;28;20436;-69
2023/12/25 17:30:01;;;;;;;3.08;1.60;;;;;;;-3.59;98.08;97612.31;10436312;28;20045;-67
2023/12/25 17:35:05;;;;;;;2.80;2.10;;;;;;;-3.64;98.04;97615.00;10439812;28;20041;-67
2023/12/25 17:40:09;;;;;;;4.32;2.22;;;;;;;-3.64;98.63;97612.31;10442335;28;20029;-67
2023/12/25 17:45:11;;;;;;;3.92;2.65;;;;;;;-3.58;98.25;97621.16;10443539;28;20064;-68
2023/12/25 17:50:14;;;;;;;3.42;2.10;;;;;;;-3.60;97.98;97624.13;10425380;28;20034;-68
2023/12/25 17:55:16;;;;;;;2.05;1.85;;;;;;;-3.62;97.63;97617.41;10403187;28;20034;-68
2023/12/25 18:00:19;;;;;;;2.97;2.28;;;;;;;-3.62;97.95;97628.13;10423144;28;20420;-67
2023/12/25 18:05:21;;;;;;;3.50;2.17;;;;;;;-3.58;98.27;97623.84;10417074;28;20036;-69
2023/12/25 18:10:24;;;;;;;3.53;2.15;;;;;;;-3.62;98.06;97625.47;10435789;28;20037;-68
2023/12/25 18:15:28;;;;;;;1.95;1.75;;;;;;;-3.57;98.10;97631.63;10432480;28;20037;-67
2023/12/25 18:20:32;;;;;;;2.95;1.75;;;;;;;-3.51;98.32;97633.25;10433836;28;20568;-67
2023/12/25 18:25:34;;;;;;;1.83;1.70;;;;;;;-3.55;98.15;97631.34;10427365;28;20041;-69
2023/12/25 18:30:39;;;;;;;2.47;1.88;;;;;;;-3.54;97.99;97635.66;10424735;28;20037;-68
2023/12/25 18:35:42;;;;;;;3.38;2.10;;;;;;;-3.50;98.37;97640.22;10415039;28;20532;-68
2023/12/25 18:40:45;;;;;;;2.92;1.75;;;;;;;-3.48;98.66;97639.94;10427984;28;20048;-66
2023/12/25 18:45:48;;;;;;;2.15;1.73;;;;;;;-3.47;98.75;97641.56;10419464;28;20060;-67
2023/12/25 18:50:51;;;;;;;4.07;1.70;;;;;;;-3.49;98.68;97639.13;10428164;28;20040;-67
2023/12/25 18:55:54;;;;;;;1.95;1.85;;;;;;;-3.54;98.45;97641.00;10418600;28;20041;-68
2023/12/25 19:00:59;;;;;;;2.35;1.90;;;;;;;-3.49;98.21;97644.50;10422810;28;20040;-68
2023/12/25 19:06:04;;;;;;;3.03;1.70;;;;;;;-3.47;98.37;97647.75;10402453;28;20091;-66
2023/12/25 19:11:07;;;;;;;2.70;1.77;;;;;;;-3.46;98.66;97645.88;10426822;28;20416;-64
2023/12/25 19:16:12;;;;;;;2.67;2.03;;;;;;;-3.46;98.90;97654.72;10426516;28;20052;-65
2023/12/25 19:21:15;;;;;;;2.63;1.90;;;;;;;-3.42;98.81;97655.78;10422228;28;20052;-64
2023/12/25 19:26:20;;;;;;;2.67;1.77;;;;;;;-3.44;99.00;97655.25;10419312;28;20049;-64
2023/12/25 19:31:24;;;;;;;2.40;1.73;;;;;;;-3.45;98.89;97647.47;10433109;28;20033;-64
2023/12/25 19:36:27;;;;;;;3.63;1.77;;;;;;;-3.45;99.54;97650.97;10436675;28;20048;-67
2023/12/25 19:41:31;;;;;;;2.25;1.40;;;;;;;-3.44;99.35;97657.94;10412368;28;20044;-66
2023/12/25 19:46:33;;;;;;;2.10;1.65;;;;;;;-3.42;99.24;97658.47;10434956;28;20045;-65
2023/12/25 19:51:36;;;;;;;2.03;1.38;;;;;;;-3.45;99.19;97652.84;10402705;28;20033;-65
2023/12/25 19:56:39;;;;;;;2.38;1.45;;;;;;;-3.50;99.12;97669.69;10415089;28;20036;-66
2023/12/25 20:01:43;;;;;;;3.70;2.10;;;;;;;-3.41;99.17;97680.72;10425729;28;20052;-63
2023/12/25 20:06:47;;;;;;;2.50;1.63;;;;;;;-3.36;99.47;97686.09;10442882;28;20533;-64
2023/12/25 20:11:51;;;;;;;2.70;1.60;;;;;;;-3.37;98.93;97676.44;10436078;28;20045;-64
2023/12/25 20:16:53;;;;;;;2.05;1.85;;;;;;;-3.30;99.24;97692.28;10427127;28;20057;-64
2023/12/25 20:21:55;;;;;;;2.33;1.92;;;;;;;-3.35;99.14;97693.06;10408876;28;20037;-65
2023/12/25 20:26:58;;;;;;;2.50;1.70;;;;;;;-3.30;99.03;97698.44;10439196;28;20041;-64
2023/12/25 20:32:00;;;;;;;4.90;1.77;;;;;;;-3.11;98.93;97709.50;10441668;28;20041;-66
2023/12/25 20:37:16;;;;;;;2.10;1.60;;;;;;;-3.23;98.76;97712.41;10445361;28;20034;-64
2023/12/25 20:42:20;;;;;;;3.67;1.70;;;;;;;-3.10;98.20;97705.75;10445486;28;20041;-66
2023/12/25 20:47:23;;;;;;;4.10;2.05;;;;;;;-2.94;98.71;97726.19;10434489;28;20052;-66
2023/12/25 20:52:26;;;;;;;2.42;1.85;;;;;;;-3.15;97.26;97722.63;10428995;28;20041;-65
2023/12/25 20:57:29;;;;;;;1.63;1.23;;;;;;;-2.92;97.83;97723.22;10428869;28;20037;-65
2023/12/25 21:02:32;;;;;;;0.38;0.32;;;;;;;-2.90;96.31;97732.63;10442142;28;20041;-65
2023/12/25 21:07:34;;;;;;;1.70;1.25;;;;;;;-2.91;96.56;97735.56;10447669;28;20038;-64
2023/12/25 21:12:37;;;;;;;0.73;0.52;;;;;;;-3.01;96.78;97736.34;10422871;28;20036;-64
2023/12/25 21:17:42;;;;;;;1.25;1.10;;;;;;;-3.17;96.32;97742.72;10441052;28;20029;-64
2023/12/25 21:22:46;;;;;;;2.22;1.40;;;;;;;-3.20;97.00;97743.25;10439825;28;20100;-66
2023/12/25 21:27:49;;;;;;;1.70;1.42;;;;;;;-3.12;97.21;97742.75;10442629;28;20050;-65
2023/12/25 21:32:52;;;;;;;2.17;1.70;;;;;;;-3.21;97.70;97757.75;10433949;28;20029;-65
2023/12/25 21:37:54;;;;;;;2.30;2.10;;;;;;;-3.22;97.76;97766.84;10433847;28;20452;-64
2023/12/25 21:43:00;;;;;;;2.95;2.35;;;;;;;-3.25;98.25;97767.38;10428636;28;20041;-64
2023/12/25 21:48:04;;;;;;;3.42;1.80;;;;;;;-3.10;97.80;97776.28;10438634;28;20071;-65
2023/12/25 21:53:06;;;;;;;3.22;2.13;;;;;;;-3.16;98.00;97769.28;10422659;28;20531;-66
2023/12/25 21:58:11;;;;;;;2.97;2.03;;;;;;;-3.21;98.50;97777.31;10429975;28;20048;-65
2023/12/25 22:03:14;;;;;;;4.35;2.60;;;;;;;-3.17;97.94;97782.94;10422976;28;20429;-65
2023/12/25 22:08:17;;;;;;;5.03;2.20;;;;;;;-3.15;98.12;97783.50;10427099;28;20049;-66
2023/12/25 22:13:20;;;;;;;3.47;1.48;;;;;;;-3.09;97.93;97790.50;10434446;28;20041;-66
2023/12/25 22:18:23;;;;;;;2.40;1.80;;;;;;;-3.05;98.18;97776.31;10442430;28;20033;-65
2023/12/25 22:23:28;;;;;;;3.38;2.00;;;;;;;-3.11;97.96;97787.28;10438650;28;20383;-65
2023/12/25 22:28:31;;;;;;;4.63;1.92;;;;;;;-3.15;97.92;97796.91;10431082;28;20048;-66
2023/12/25 22:33:33;;;;;;;4.03;1.80;;;;;;;-3.09;98.03;97799.34;10442369;28;20041;-65
2023/12/25 22:38:35;;;;;;;3.65;1.70;;;;;;;-3.12;97.84;97805.25;10440429;28;20071;-64
2023/12/25 22:43:38;;;;;;;3.13;1.50;;;;;;;-3.09;97.39;97809.28;10421163;28;20064;-65
2023/12/25 22:48:42;;;;;;;2.92;1.38;;;;;;;-3.11;97.84;97812.22;10425422;28;20544;-65
2023/12/25 22:53:45;;;;;;;3.05;2.00;;;;;;;-3.10;97.83;97827.25;10431436;28;20041;-65
2023/12/25 22:58:47;;;;;;;1.75;1.40;;;;;;;-3.12;97.54;97831.28;10435698;28;20041;-65
2023/12/25 23:03:50;;;;;;;2.90;1.95;;;;;;;-3.09;97.32;97836.09;10430173;28;20046;-66
2023/12/25 23:08:52;;;;;;;1.60;1.17;;;;;;;-3.04;97.68;97833.44;10437539;28;20044;-66
2023/12/25 23:13:55;;;;;;;3.03;1.83;;;;;;;-2.95;97.43;97847.97;10419687;28;20029;-66
2023/12/25 23:18:57;;;;;;;2.33;1.70;;;;;;;-2.90;97.09;97852.53;10424034;28;20033;-66
2023/12/25 23:24:00;;;;;;;3.00;1.85;;;;;;;-2.95;96.96;97853.34;10430608;28;20056;-65
2023/12/25 23:29:02;;;;;;;4.35;2.40;;;;;;;-2.93;96.87;97861.94;10436374;28;20056;-65